F/V Jumila — FIDA — position and weather

sailwx.info

Track history (hours):
 
Tides and Currents Weather Stations Pressure Air Temp Water Temp Dewpoint Dewpoint Depression Visibility Wind Speed Wind Dir Waves Ship Positions

F/V Jumila

Last reported at 2017-Sep-19 22:30 UTC. Time now 2017-Sep-19 22:42 UTC.
Position N 47°41' W 003°30'.

Length 14 m.

Type: Fishing. MMSI: 228020600.

Date/timePositionNaut miles runAvg speedWind from/ knotsBaromVisibWave heightAir tempDewpointWater temp
2017-Sep-19 22:30N 47°41' W 003°30'4 8.0
2017-Sep-19 22:00N 47°40' W 003°36'4 7.8
2017-Sep-19 21:30N 47°38' W 003°41'4 7.9
2017-Sep-19 21:00N 47°37' W 003°47'4 7.7
2017-Sep-19 20:30N 47°36' W 003°52'4 7.6
2017-Sep-19 20:00N 47°35' W 003°58'1 2.5
2017-Sep-19 19:29N 47°36' W 003°59'2 3.2
2017-Sep-19 18:59N 47°36' W 004°02'2 3.3
2017-Sep-19 18:30N 47°37' W 004°04'3 1.1
2017-Sep-19 15:58N 47°34' W 004°04'3 1.1
2017-Sep-19 13:33N 47°37' W 004°06'5 3.5
2017-Sep-19 12:02N 47°35' W 003°58'5 2.6
2017-Sep-19 09:58N 47°35' W 004°06'5 3.5
2017-Sep-19 08:40N 47°34' W 003°60'0 1.7
2017-Sep-19 08:29N 47°34' W 004°00'2 0.6
2017-Sep-19 05:25N 47°36' W 003°59'7 8.6
2017-Sep-19 04:39N 47°37' W 003°49'1 9.0
2017-Sep-19 04:30N 47°38' W 003°47'4 8.9
2017-Sep-19 04:00N 47°38' W 003°41'4 8.7
2017-Sep-19 03:30N 47°39' W 003°35'4 8.8
2017-Sep-19 03:00N 47°40' W 003°28'4 8.6
2017-Sep-19 02:31N 47°42' W 003°23'2 3.8
2017-Sep-19 02:00N 47°44' W 003°22'0 0.0
2017-Sep-18 14:05N 47°44' W 003°22'0 0.0
2017-Sep-18 14:00N 47°44' W 003°22'0 0.0
2017-Sep-18 13:30N 47°44' W 003°22'0 0.0
2017-Sep-18 10:08N 47°44' W 003°22'0 0.0
2017-Sep-18 10:00N 47°44' W 003°22'0 0.0
2017-Sep-18 09:31N 47°44' W 003°22'0 0.0
2017-Sep-18 09:00N 47°44' W 003°22'0 0.0
2017-Sep-18 02:35N 47°44' W 003°22'0 0.1
2017-Sep-18 02:30N 47°44' W 003°22'0 0.2
2017-Sep-18 02:00N 47°44' W 003°22'0 0.4
2017-Sep-18 01:31N 47°44' W 003°22'0 0.0
2017-Sep-18 01:00N 47°44' W 003°22'0 0.1
2017-Sep-18 00:31N 47°44' W 003°22'1 1.5
2017-Sep-18 00:01N 47°43' W 003°22'3 6.3
2017-Sep-17 23:30N 47°41' W 003°25'4 8.9
2017-Sep-17 23:01N 47°40' W 003°32'4 8.8
2017-Sep-17 22:31N 47°39' W 003°38'4 8.6
2017-Sep-17 22:01N 47°38' W 003°44'4 8.6
2017-Sep-17 21:30N 47°37' W 003°50'6 0.5
2017-Sep-17 08:08N 47°34' W 003°58'1 3.5
2017-Sep-17 07:56N 47°33' W 003°59'3 1.2
2017-Sep-17 05:38N 47°36' W 004°01'7 7.1
2017-Sep-17 04:40N 47°37' W 003°51'2 8.6
2017-Sep-17 04:29N 47°38' W 003°48'4 8.5
2017-Sep-17 04:00N 47°38' W 003°42'4 8.4
2017-Sep-17 03:31N 47°39' W 003°36'4 8.5
2017-Sep-17 03:01N 47°40' W 003°30'4 8.3
2017-Sep-17 02:30N 47°41' W 003°24'3 5.1
2017-Sep-17 02:01N 47°43' W 003°21'0 0.0
2017-Sep-16 00:46N 47°43' W 003°21'0 0.0
2017-Sep-16 00:30N 47°43' W 003°21'0 0.0
2017-Sep-16 00:00N 47°43' W 003°21'1 2.4
2017-Sep-15 23:30N 47°44' W 003°22'0 0.0
2017-Sep-15 23:00N 47°44' W 003°22'2 4.3
2017-Sep-15 22:30N 47°42' W 003°23'5 9.1
2017-Sep-15 22:00N 47°40' W 003°29'4 8.4
2017-Sep-15 21:30N 47°39' W 003°35'4 8.0
2017-Sep-15 21:00N 47°37' W 003°40'4 7.8
2017-Sep-15 20:30N 47°35' W 003°45'3 6.3
2017-Sep-15 20:00N 47°33' W 003°49'2 3.6
2017-Sep-15 19:30N 47°32' W 003°51'5 0.6
2017-Sep-15 10:04N 47°34' W 003°58'0 3.6
2017-Sep-15 10:00N 47°34' W 003°58'2 3.2
2017-Sep-15 09:23N 47°32' W 003°57'3 2.6
2017-Sep-15 08:03N 47°31' W 003°53'0 3.4
2017-Sep-15 07:59N 47°31' W 003°52'2 3.3
2017-Sep-15 07:28N 47°31' W 003°50'1 3.3
2017-Sep-15 07:00N 47°32' W 003°48'6 2.9
2017-Sep-15 04:49N 47°38' W 003°47'0 0.0
2017-Sep-15 02:33N 47°39' W 003°47'0 0.0
2017-Sep-15 02:30N 47°39' W 003°47'2 3.9
2017-Sep-15 02:00N 47°39' W 003°44'2 4.7
2017-Sep-15 01:30N 47°39' W 003°40'2 5.0
2017-Sep-15 01:00N 47°40' W 003°37'3 5.4
2017-Sep-15 00:30N 47°40' W 003°33'3 5.9
2017-Sep-15 00:00N 47°40' W 003°28'3 6.0
2017-Sep-14 23:30N 47°41' W 003°24'3 6.0
2017-Sep-14 23:00N 47°44' W 003°22'0 0.0
2017-Sep-14 22:30N 47°44' W 003°22'3 5.4
2017-Sep-14 22:00N 47°41' W 003°24'4 7.9
2017-Sep-14 21:30N 47°41' W 003°30'4 7.9
2017-Sep-14 21:00N 47°42' W 003°35'4 7.7
2017-Sep-14 20:30N 47°43' W 003°41'4 7.8
2017-Sep-14 20:00N 47°43' W 003°47'2 2.4
2017-Sep-14 19:17N 47°42' W 003°48'1 3.3
2017-Sep-14 19:00N 47°41' W 003°47'2 3.3
2017-Sep-14 18:30N 47°39' W 003°46'2 3.5
2017-Sep-14 18:00N 47°38' W 003°47'2 3.5
2017-Sep-14 17:30N 47°36' W 003°47'2 3.5
2017-Sep-14 17:00N 47°34' W 003°46'2 3.2
2017-Sep-14 16:30N 47°33' W 003°47'2 3.4
2017-Sep-14 16:00N 47°32' W 003°49'1 2.6
2017-Sep-14 15:30N 47°31' W 003°51'2 3.3
2017-Sep-14 15:00N 47°31' W 003°53'2 3.2
2017-Sep-14 14:30N 47°30' W 003°55'2 3.2
2017-Sep-14 14:00N 47°29' W 003°57'2 3.1
2017-Sep-14 13:29N 47°29' W 003°60'1 2.4
2017-Sep-14 12:59N 47°30' W 003°60'2 3.2
2017-Sep-14 12:20N 47°31' W 003°57'2 2.3
2017-Sep-14 11:25N 47°33' W 003°59'4 1.7
2017-Sep-14 09:19N 47°31' W 003°54'1 3.2
2017-Sep-14 09:00N 47°31' W 003°53'1 1.5
2017-Sep-14 08:30N 47°32' W 003°52'1 2.8
2017-Sep-14 07:59N 47°31' W 003°50'1 2.9
2017-Sep-14 07:30N 47°32' W 003°48'2 3.2
2017-Sep-14 07:00N 47°34' W 003°47'5 3.2
2017-Sep-14 05:26N 47°39' W 003°46'3 6.6
2017-Sep-14 05:00N 47°39' W 003°42'3 6.5
2017-Sep-14 04:30N 47°39' W 003°37'3 6.5
2017-Sep-14 04:00N 47°40' W 003°32'3 6.6
2017-Sep-14 03:30N 47°40' W 003°28'3 6.8
2017-Sep-14 03:00N 47°42' W 003°23'1 2.9
2017-Sep-14 02:30N 47°43' W 003°21'0 0.0
2017-Sep-12 23:42N 47°43' W 003°21'0 0.0
2017-Sep-12 23:30N 47°43' W 003°21'1 2.4
2017-Sep-12 23:00N 47°44' W 003°22'0 0.0
2017-Sep-12 22:30N 47°44' W 003°22'1 2.2
2017-Sep-12 22:00N 47°43' W 003°22'3 6.4
2017-Sep-12 21:30N 47°41' W 003°26'4 7.4
2017-Sep-12 21:00N 47°41' W 003°31'4 7.3
2017-Sep-12 20:30N 47°40' W 003°37'4 7.4
2017-Sep-12 20:00N 47°40' W 003°42'3 5.0
2017-Sep-12 19:30N 47°40' W 003°46'2 3.2
2017-Sep-12 18:59N 47°38' W 003°47'2 3.6
2017-Sep-12 18:21N 47°36' W 003°47'1 3.5
2017-Sep-12 17:59N 47°35' W 003°47'2 3.5
2017-Sep-12 17:30N 47°33' W 003°47'2 3.6
2017-Sep-12 16:59N 47°32' W 003°49'5 3.5
2017-Sep-12 15:42N 47°33' W 003°55'0 2.2
2017-Sep-12 15:30N 47°33' W 003°56'1 0.3
2017-Sep-12 12:59N 47°32' W 003°54'2 3.2
2017-Sep-12 12:27N 47°32' W 003°52'0 0.9
2017-Sep-12 12:00N 47°32' W 003°51'2 3.3
2017-Sep-12 11:30N 47°32' W 003°54'4 3.4
2017-Sep-12 10:18N 47°33' W 003°60'3 2.3
2017-Sep-12 09:01N 47°32' W 003°56'0 3.0
2017-Sep-12 08:59N 47°32' W 003°56'1 2.5
2017-Sep-12 08:24N 47°32' W 003°54'1 2.9
2017-Sep-12 08:00N 47°32' W 003°52'2 3.0
2017-Sep-12 07:29N 47°31' W 003°50'1 2.9
2017-Sep-12 07:00N 47°32' W 003°48'6 3.2
2017-Sep-12 05:12N 47°38' W 003°47'1 3.3
2017-Sep-12 04:54N 47°39' W 003°46'0 0.5
2017-Sep-12 04:30N 47°39' W 003°46'1 2.7
2017-Sep-12 04:00N 47°39' W 003°44'1 1.6
2017-Sep-12 03:28N 47°39' W 003°46'1 2.5
2017-Sep-12 03:00N 47°39' W 003°44'1 2.5
2017-Sep-12 02:30N 47°39' W 003°42'2 3.7
2017-Sep-12 02:00N 47°39' W 003°39'2 4.3
2017-Sep-12 01:30N 47°39' W 003°36'2 4.9
2017-Sep-12 01:00N 47°40' W 003°33'2 4.8
2017-Sep-12 00:30N 47°40' W 003°29'2 4.9
2017-Sep-12 00:00N 47°41' W 003°25'3 6.3
2017-Sep-11 23:30N 47°43' W 003°22'1 1.8
2017-Sep-11 23:00N 47°44' W 003°22'1 2.6
2017-Sep-11 22:30N 47°42' W 003°22'3 6.3
2017-Sep-11 22:00N 47°41' W 003°26'4 7.4
2017-Sep-11 21:30N 47°40' W 003°31'4 7.3
2017-Sep-11 21:00N 47°40' W 003°37'4 7.4
2017-Sep-11 20:30N 47°41' W 003°42'3 6.2
2017-Sep-11 20:01N 47°41' W 003°47'2 2.6
2017-Sep-11 19:24N 47°39' W 003°46'1 3.2
2017-Sep-11 18:56N 47°38' W 003°46'1 3.2
2017-Sep-11 18:30N 47°36' W 003°47'2 3.2
2017-Sep-11 18:00N 47°35' W 003°47'2 3.2
2017-Sep-11 17:30N 47°33' W 003°48'2 3.6
2017-Sep-11 17:00N 47°33' W 003°50'2 3.6
2017-Sep-11 16:21N 47°32' W 003°54'1 3.7
2017-Sep-11 15:59N 47°32' W 003°56'3 3.2
2017-Sep-11 15:07N 47°33' W 003°60'4 2.4
2017-Sep-11 13:22N 47°31' W 003°54'1 2.8
2017-Sep-11 12:56N 47°31' W 003°53'1 3.0
2017-Sep-11 12:28N 47°31' W 003°51'1 1.8
2017-Sep-11 12:00N 47°31' W 003°49'6 2.6
2017-Sep-11 09:49N 47°37' W 003°48'1 2.5
2017-Sep-11 09:30N 47°36' W 003°47'2 3.2
2017-Sep-11 09:00N 47°35' W 003°47'1 2.2
2017-Sep-11 08:30N 47°34' W 003°48'2 3.5
2017-Sep-11 08:00N 47°33' W 003°50'2 3.8
2017-Sep-11 07:30N 47°32' W 003°52'1 2.2
2017-Sep-11 07:00N 47°31' W 003°51'1 2.6
2017-Sep-11 06:29N 47°32' W 003°49'1 2.7
2017-Sep-11 06:00N 47°32' W 003°48'2 2.9
2017-Sep-11 05:26N 47°33' W 003°46'2 5.6
2017-Sep-11 05:00N 47°35' W 003°43'4 7.1
2017-Sep-11 04:30N 47°37' W 003°39'3 7.0
2017-Sep-11 04:00N 47°39' W 003°35'3 6.4
2017-Sep-11 03:30N 47°40' W 003°30'3 6.8
2017-Sep-11 03:00N 47°41' W 003°25'3 6.3
2017-Sep-11 02:30N 47°43' W 003°22'0 0.8
2017-Sep-11 02:00N 47°43' W 003°21'  
Track history (hours):
 
Tides and Currents Weather Stations Pressure Air Temp Water Temp Dewpoint Dewpoint Depression Visibility Wind Speed Wind Dir Waves Ship Positions

F/V Jumila

Last reported at 2017-Sep-19 22:30 UTC. Time now 2017-Sep-19 22:42 UTC.
Position N 47°41' W 003°30'.

Length 14 m.

Type: Fishing. MMSI: 228020600.

Date/timePositionNaut miles runAvg speedWind from/ knotsBaromVisibWave heightAir tempDewpointWater temp
2017-Sep-19 22:30N 47°41' W 003°30'4 8.0
2017-Sep-19 22:00N 47°40' W 003°36'4 7.8
2017-Sep-19 21:30N 47°38' W 003°41'4 7.9
2017-Sep-19 21:00N 47°37' W 003°47'4 7.7
2017-Sep-19 20:30N 47°36' W 003°52'4 7.6
2017-Sep-19 20:00N 47°35' W 003°58'1 2.5
2017-Sep-19 19:29N 47°36' W 003°59'2 3.2
2017-Sep-19 18:59N 47°36' W 004°02'2 3.3
2017-Sep-19 18:30N 47°37' W 004°04'3 1.1
2017-Sep-19 15:58N 47°34' W 004°04'3 1.1
2017-Sep-19 13:33N 47°37' W 004°06'5 3.5
2017-Sep-19 12:02N 47°35' W 003°58'5 2.6
2017-Sep-19 09:58N 47°35' W 004°06'5 3.5
2017-Sep-19 08:40N 47°34' W 003°60'0 1.7
2017-Sep-19 08:29N 47°34' W 004°00'2 0.6
2017-Sep-19 05:25N 47°36' W 003°59'7 8.6
2017-Sep-19 04:39N 47°37' W 003°49'1 9.0
2017-Sep-19 04:30N 47°38' W 003°47'4 8.9
2017-Sep-19 04:00N 47°38' W 003°41'4 8.7
2017-Sep-19 03:30N 47°39' W 003°35'4 8.8
2017-Sep-19 03:00N 47°40' W 003°28'4 8.6
2017-Sep-19 02:31N 47°42' W 003°23'2 3.8
2017-Sep-19 02:00N 47°44' W 003°22'0 0.0
2017-Sep-18 14:05N 47°44' W 003°22'0 0.0
2017-Sep-18 14:00N 47°44' W 003°22'0 0.0
2017-Sep-18 13:30N 47°44' W 003°22'0 0.0
2017-Sep-18 10:08N 47°44' W 003°22'0 0.0
2017-Sep-18 10:00N 47°44' W 003°22'0 0.0
2017-Sep-18 09:31N 47°44' W 003°22'0 0.0
2017-Sep-18 09:00N 47°44' W 003°22'0 0.0
2017-Sep-18 02:35N 47°44' W 003°22'0 0.1
2017-Sep-18 02:30N 47°44' W 003°22'0 0.2
2017-Sep-18 02:00N 47°44' W 003°22'0 0.4
2017-Sep-18 01:31N 47°44' W 003°22'0 0.0
2017-Sep-18 01:00N 47°44' W 003°22'0 0.1
2017-Sep-18 00:31N 47°44' W 003°22'1 1.5
2017-Sep-18 00:01N 47°43' W 003°22'3 6.3
2017-Sep-17 23:30N 47°41' W 003°25'4 8.9
2017-Sep-17 23:01N 47°40' W 003°32'4 8.8
2017-Sep-17 22:31N 47°39' W 003°38'4 8.6
2017-Sep-17 22:01N 47°38' W 003°44'4 8.6
2017-Sep-17 21:30N 47°37' W 003°50'6 0.5
2017-Sep-17 08:08N 47°34' W 003°58'1 3.5
2017-Sep-17 07:56N 47°33' W 003°59'3 1.2
2017-Sep-17 05:38N 47°36' W 004°01'7 7.1
2017-Sep-17 04:40N 47°37' W 003°51'2 8.6
2017-Sep-17 04:29N 47°38' W 003°48'4 8.5
2017-Sep-17 04:00N 47°38' W 003°42'4 8.4
2017-Sep-17 03:31N 47°39' W 003°36'4 8.5
2017-Sep-17 03:01N 47°40' W 003°30'4 8.3
2017-Sep-17 02:30N 47°41' W 003°24'3 5.1
2017-Sep-17 02:01N 47°43' W 003°21'0 0.0
2017-Sep-16 00:46N 47°43' W 003°21'0 0.0
2017-Sep-16 00:30N 47°43' W 003°21'0 0.0
2017-Sep-16 00:00N 47°43' W 003°21'1 2.4
2017-Sep-15 23:30N 47°44' W 003°22'0 0.0
2017-Sep-15 23:00N 47°44' W 003°22'2 4.3
2017-Sep-15 22:30N 47°42' W 003°23'5 9.1
2017-Sep-15 22:00N 47°40' W 003°29'4 8.4
2017-Sep-15 21:30N 47°39' W 003°35'4 8.0
2017-Sep-15 21:00N 47°37' W 003°40'4 7.8
2017-Sep-15 20:30N 47°35' W 003°45'3 6.3
2017-Sep-15 20:00N 47°33' W 003°49'2 3.6
2017-Sep-15 19:30N 47°32' W 003°51'5 0.6
2017-Sep-15 10:04N 47°34' W 003°58'0 3.6
2017-Sep-15 10:00N 47°34' W 003°58'2 3.2
2017-Sep-15 09:23N 47°32' W 003°57'3 2.6
2017-Sep-15 08:03N 47°31' W 003°53'0 3.4
2017-Sep-15 07:59N 47°31' W 003°52'2 3.3
2017-Sep-15 07:28N 47°31' W 003°50'1 3.3
2017-Sep-15 07:00N 47°32' W 003°48'6 2.9
2017-Sep-15 04:49N 47°38' W 003°47'0 0.0
2017-Sep-15 02:33N 47°39' W 003°47'0 0.0
2017-Sep-15 02:30N 47°39' W 003°47'2 3.9
2017-Sep-15 02:00N 47°39' W 003°44'2 4.7
2017-Sep-15 01:30N 47°39' W 003°40'2 5.0
2017-Sep-15 01:00N 47°40' W 003°37'3 5.4
2017-Sep-15 00:30N 47°40' W 003°33'3 5.9
2017-Sep-15 00:00N 47°40' W 003°28'3 6.0
2017-Sep-14 23:30N 47°41' W 003°24'3 6.0
2017-Sep-14 23:00N 47°44' W 003°22'0 0.0
2017-Sep-14 22:30N 47°44' W 003°22'3 5.4
2017-Sep-14 22:00N 47°41' W 003°24'4 7.9
2017-Sep-14 21:30N 47°41' W 003°30'4 7.9
2017-Sep-14 21:00N 47°42' W 003°35'4 7.7
2017-Sep-14 20:30N 47°43' W 003°41'4 7.8
2017-Sep-14 20:00N 47°43' W 003°47'2 2.4
2017-Sep-14 19:17N 47°42' W 003°48'1 3.3
2017-Sep-14 19:00N 47°41' W 003°47'2 3.3
2017-Sep-14 18:30N 47°39' W 003°46'2 3.5
2017-Sep-14 18:00N 47°38' W 003°47'2 3.5
2017-Sep-14 17:30N 47°36' W 003°47'2 3.5
2017-Sep-14 17:00N 47°34' W 003°46'2 3.2
2017-Sep-14 16:30N 47°33' W 003°47'2 3.4
2017-Sep-14 16:00N 47°32' W 003°49'1 2.6
2017-Sep-14 15:30N 47°31' W 003°51'2 3.3
2017-Sep-14 15:00N 47°31' W 003°53'2 3.2
2017-Sep-14 14:30N 47°30' W 003°55'2 3.2
2017-Sep-14 14:00N 47°29' W 003°57'2 3.1
2017-Sep-14 13:29N 47°29' W 003°60'1 2.4
2017-Sep-14 12:59N 47°30' W 003°60'2 3.2
2017-Sep-14 12:20N 47°31' W 003°57'2 2.3
2017-Sep-14 11:25N 47°33' W 003°59'4 1.7
2017-Sep-14 09:19N 47°31' W 003°54'1 3.2
2017-Sep-14 09:00N 47°31' W 003°53'1 1.5
2017-Sep-14 08:30N 47°32' W 003°52'1 2.8
2017-Sep-14 07:59N 47°31' W 003°50'1 2.9
2017-Sep-14 07:30N 47°32' W 003°48'2 3.2
2017-Sep-14 07:00N 47°34' W 003°47'5 3.2
2017-Sep-14 05:26N 47°39' W 003°46'3 6.6
2017-Sep-14 05:00N 47°39' W 003°42'3 6.5
2017-Sep-14 04:30N 47°39' W 003°37'3 6.5
2017-Sep-14 04:00N 47°40' W 003°32'3 6.6
2017-Sep-14 03:30N 47°40' W 003°28'3 6.8
2017-Sep-14 03:00N 47°42' W 003°23'1 2.9
2017-Sep-14 02:30N 47°43' W 003°21'0 0.0
2017-Sep-12 23:42N 47°43' W 003°21'0 0.0
2017-Sep-12 23:30N 47°43' W 003°21'1 2.4
2017-Sep-12 23:00N 47°44' W 003°22'0 0.0
2017-Sep-12 22:30N 47°44' W 003°22'1 2.2
2017-Sep-12 22:00N 47°43' W 003°22'3 6.4
2017-Sep-12 21:30N 47°41' W 003°26'4 7.4
2017-Sep-12 21:00N 47°41' W 003°31'4 7.3
2017-Sep-12 20:30N 47°40' W 003°37'4 7.4
2017-Sep-12 20:00N 47°40' W 003°42'3 5.0
2017-Sep-12 19:30N 47°40' W 003°46'2 3.2
2017-Sep-12 18:59N 47°38' W 003°47'2 3.6
2017-Sep-12 18:21N 47°36' W 003°47'1 3.5
2017-Sep-12 17:59N 47°35' W 003°47'2 3.5
2017-Sep-12 17:30N 47°33' W 003°47'2 3.6
2017-Sep-12 16:59N 47°32' W 003°49'5 3.5
2017-Sep-12 15:42N 47°33' W 003°55'0 2.2
2017-Sep-12 15:30N 47°33' W 003°56'1 0.3
2017-Sep-12 12:59N 47°32' W 003°54'2 3.2
2017-Sep-12 12:27N 47°32' W 003°52'0 0.9
2017-Sep-12 12:00N 47°32' W 003°51'2 3.3
2017-Sep-12 11:30N 47°32' W 003°54'4 3.4
2017-Sep-12 10:18N 47°33' W 003°60'3 2.3
2017-Sep-12 09:01N 47°32' W 003°56'0 3.0
2017-Sep-12 08:59N 47°32' W 003°56'1 2.5
2017-Sep-12 08:24N 47°32' W 003°54'1 2.9
2017-Sep-12 08:00N 47°32' W 003°52'2 3.0
2017-Sep-12 07:29N 47°31' W 003°50'1 2.9
2017-Sep-12 07:00N 47°32' W 003°48'6 3.2
2017-Sep-12 05:12N 47°38' W 003°47'1 3.3
2017-Sep-12 04:54N 47°39' W 003°46'0 0.5
2017-Sep-12 04:30N 47°39' W 003°46'1 2.7
2017-Sep-12 04:00N 47°39' W 003°44'1 1.6
2017-Sep-12 03:28N 47°39' W 003°46'1 2.5
2017-Sep-12 03:00N 47°39' W 003°44'1 2.5
2017-Sep-12 02:30N 47°39' W 003°42'2 3.7
2017-Sep-12 02:00N 47°39' W 003°39'2 4.3
2017-Sep-12 01:30N 47°39' W 003°36'2 4.9
2017-Sep-12 01:00N 47°40' W 003°33'2 4.8
2017-Sep-12 00:30N 47°40' W 003°29'2 4.9
2017-Sep-12 00:00N 47°41' W 003°25'3 6.3
2017-Sep-11 23:30N 47°43' W 003°22'1 1.8
2017-Sep-11 23:00N 47°44' W 003°22'1 2.6
2017-Sep-11 22:30N 47°42' W 003°22'3 6.3
2017-Sep-11 22:00N 47°41' W 003°26'4 7.4
2017-Sep-11 21:30N 47°40' W 003°31'4 7.3
2017-Sep-11 21:00N 47°40' W 003°37'4 7.4
2017-Sep-11 20:30N 47°41' W 003°42'3 6.2
2017-Sep-11 20:01N 47°41' W 003°47'2 2.6
2017-Sep-11 19:24N 47°39' W 003°46'1 3.2
2017-Sep-11 18:56N 47°38' W 003°46'1 3.2
2017-Sep-11 18:30N 47°36' W 003°47'2 3.2
2017-Sep-11 18:00N 47°35' W 003°47'2 3.2
2017-Sep-11 17:30N 47°33' W 003°48'2 3.6
2017-Sep-11 17:00N 47°33' W 003°50'2 3.6
2017-Sep-11 16:21N 47°32' W 003°54'1 3.7
2017-Sep-11 15:59N 47°32' W 003°56'3 3.2
2017-Sep-11 15:07N 47°33' W 003°60'4 2.4
2017-Sep-11 13:22N 47°31' W 003°54'1 2.8
2017-Sep-11 12:56N 47°31' W 003°53'1 3.0
2017-Sep-11 12:28N 47°31' W 003°51'1 1.8
2017-Sep-11 12:00N 47°31' W 003°49'6 2.6
2017-Sep-11 09:49N 47°37' W 003°48'1 2.5
2017-Sep-11 09:30N 47°36' W 003°47'2 3.2
2017-Sep-11 09:00N 47°35' W 003°47'1 2.2
2017-Sep-11 08:30N 47°34' W 003°48'2 3.5
2017-Sep-11 08:00N 47°33' W 003°50'2 3.8
2017-Sep-11 07:30N 47°32' W 003°52'1 2.2
2017-Sep-11 07:00N 47°31' W 003°51'1 2.6
2017-Sep-11 06:29N 47°32' W 003°49'1 2.7
2017-Sep-11 06:00N 47°32' W 003°48'2 2.9
2017-Sep-11 05:26N 47°33' W 003°46'2 5.6
2017-Sep-11 05:00N 47°35' W 003°43'4 7.1
2017-Sep-11 04:30N 47°37' W 003°39'3 7.0
2017-Sep-11 04:00N 47°39' W 003°35'3 6.4
2017-Sep-11 03:30N 47°40' W 003°30'3 6.8
2017-Sep-11 03:00N 47°41' W 003°25'3 6.3
2017-Sep-11 02:30N 47°43' W 003°22'0 0.8
2017-Sep-11 02:00N 47°43' W 003°21'  

Dump ship's entire track history